createdAt,value
2019-04-07T00:00:21.039Z,941.81
2019-04-07T00:01:20.734Z,941.71
2019-04-07T00:02:20.572Z,941.73
2019-04-07T00:03:20.856Z,941.74
2019-04-07T00:04:20.573Z,941.71
2019-04-07T00:05:20.757Z,941.75
2019-04-07T00:06:20.558Z,941.82
2019-04-07T00:07:20.534Z,941.67
2019-04-07T00:08:20.643Z,941.66
2019-04-07T00:09:20.574Z,941.74
2019-04-07T00:10:20.483Z,941.64
2019-04-07T00:11:20.563Z,941.72
2019-04-07T00:12:20.520Z,941.69
2019-04-07T00:13:20.453Z,941.63
2019-04-07T00:14:20.697Z,941.59
2019-04-07T00:15:20.848Z,941.60
2019-04-07T00:16:20.422Z,941.55
2019-04-07T00:17:20.659Z,941.61
2019-04-07T00:18:20.460Z,941.56
2019-04-07T00:19:20.881Z,941.60
2019-04-07T00:20:20.841Z,941.62
2019-04-07T00:21:20.781Z,941.63
2019-04-07T00:22:20.854Z,941.59
2019-04-07T00:23:20.403Z,941.57
2019-04-07T00:24:20.341Z,941.57
2019-04-07T00:25:20.892Z,941.53
2019-04-07T00:26:20.382Z,941.52
2019-04-07T00:27:20.314Z,941.62
2019-04-07T00:28:20.512Z,941.62
2019-04-07T00:29:20.284Z,941.59
2019-04-07T00:30:20.272Z,941.62
2019-04-07T00:31:20.525Z,941.55
2019-04-07T00:32:20.253Z,941.57
2019-04-07T00:33:20.697Z,941.53
2019-04-07T00:34:20.570Z,941.61
2019-04-07T00:35:26.822Z,941.58
2019-04-07T00:36:21.868Z,941.63
2019-04-07T00:37:20.702Z,941.63
2019-04-07T00:38:20.287Z,941.64
2019-04-07T00:39:20.813Z,941.69
2019-04-07T00:40:20.762Z,941.70
2019-04-07T00:41:20.170Z,941.64
2019-04-07T00:42:20.153Z,941.61
2019-04-07T00:43:20.131Z,941.67
2019-04-07T00:44:20.173Z,941.66
2019-04-07T00:45:20.632Z,941.60
2019-04-07T00:46:21.311Z,941.69
2019-04-07T00:47:20.726Z,941.63
2019-04-07T00:48:20.081Z,941.69
2019-04-07T00:49:20.604Z,941.62
2019-04-07T00:50:20.053Z,941.59
2019-04-07T00:51:20.670Z,941.65
2019-04-07T00:52:20.563Z,941.62
2019-04-07T00:53:20.116Z,941.58
2019-04-07T00:54:20.451Z,941.61
2019-04-07T00:55:20.079Z,941.58
2019-04-07T00:56:20.517Z,941.59
2019-04-07T00:57:19.992Z,941.58
2019-04-07T00:58:19.983Z,941.57
2019-04-07T00:59:19.951Z,941.58
2019-04-07T01:00:20.369Z,941.51
2019-04-07T01:01:20.640Z,941.59
2019-04-07T01:02:19.920Z,941.54
2019-04-07T01:03:19.961Z,941.59
2019-04-07T01:04:19.958Z,941.58
2019-04-07T01:05:20.541Z,941.54
2019-04-07T01:06:19.922Z,941.58
2019-04-07T01:07:20.150Z,941.57
2019-04-07T01:08:19.866Z,941.59
2019-04-07T01:09:19.934Z,941.55
2019-04-07T01:10:20.466Z,941.62
2019-04-07T01:11:20.085Z,941.63
2019-04-07T01:12:20.358Z,941.59
2019-04-07T01:13:19.897Z,941.60
2019-04-07T01:14:19.831Z,941.58
2019-04-07T01:15:19.842Z,941.65
2019-04-07T01:16:19.942Z,941.67
2019-04-07T01:17:19.774Z,941.60
2019-04-07T01:18:19.760Z,941.60
2019-04-07T01:19:20.027Z,941.63
2019-04-07T01:20:19.802Z,941.60
2019-04-07T01:21:20.297Z,941.64
2019-04-07T01:22:19.701Z,941.74
2019-04-07T01:23:20.295Z,941.61
2019-04-07T01:24:19.896Z,941.61
2019-04-07T01:25:20.307Z,941.66
2019-04-07T01:26:19.660Z,941.68
2019-04-07T01:27:20.354Z,941.65
2019-04-07T01:28:19.813Z,941.61
2019-04-07T01:29:20.014Z,941.68
2019-04-07T01:30:19.952Z,941.61
2019-04-07T01:31:19.776Z,941.60
2019-04-07T01:32:20.264Z,941.66
2019-04-07T01:33:19.606Z,941.59
2019-04-07T01:34:19.728Z,941.67
2019-04-07T01:35:20.235Z,941.63
2019-04-07T01:36:19.570Z,941.71
2019-04-07T01:37:19.738Z,941.64
2019-04-07T01:38:20.389Z,941.69
2019-04-07T01:39:19.521Z,941.70
2019-04-07T01:40:19.920Z,941.69
2019-04-07T01:41:19.523Z,941.64
2019-04-07T01:42:20.181Z,941.68
2019-04-07T01:43:19.506Z,941.60
2019-04-07T01:44:20.137Z,941.61
2019-04-07T01:45:19.502Z,941.61
2019-04-07T01:46:19.440Z,941.67
2019-04-07T01:47:20.048Z,941.67
2019-04-07T01:48:19.451Z,941.75
2019-04-07T01:49:19.453Z,941.68
2019-04-07T01:50:19.494Z,941.60
2019-04-07T01:51:19.915Z,941.62
2019-04-07T01:52:19.593Z,941.66
2019-04-07T01:53:20.032Z,941.69
2019-04-07T01:54:19.353Z,941.67
2019-04-07T01:55:19.400Z,941.59
2019-04-07T01:56:19.328Z,941.65
2019-04-07T01:57:20.055Z,941.66
2019-04-07T01:58:20.090Z,941.71
2019-04-07T01:59:19.809Z,941.64
2019-04-07T02:00:19.325Z,941.64
2019-04-07T02:01:19.324Z,941.71
2019-04-07T02:02:19.263Z,941.63
2019-04-07T02:03:19.586Z,941.68
2019-04-07T02:04:19.262Z,941.65
2019-04-07T02:05:19.875Z,941.69
2019-04-07T02:06:19.743Z,941.72
2019-04-07T02:07:19.541Z,941.71
2019-04-07T02:08:19.876Z,941.65
2019-04-07T02:09:19.189Z,941.69
2019-04-07T02:10:19.697Z,941.68
2019-04-07T02:11:19.202Z,941.66
2019-04-07T02:12:19.849Z,941.64
2019-04-07T02:13:19.778Z,941.61
2019-04-07T02:14:19.135Z,941.69
2019-04-07T02:15:19.176Z,941.68
2019-04-07T02:16:19.228Z,941.65
2019-04-07T02:17:19.884Z,941.64
2019-04-07T02:18:19.123Z,941.66
2019-04-07T02:19:19.104Z,941.67
2019-04-07T02:20:19.089Z,941.64
2019-04-07T02:21:19.654Z,941.64
2019-04-07T02:22:19.100Z,941.65
2019-04-07T02:23:19.113Z,941.75
2019-04-07T02:24:19.277Z,941.65
2019-04-07T02:25:19.803Z,941.69
2019-04-07T02:26:19.958Z,941.70
2019-04-07T02:27:19.403Z,941.74
2019-04-07T02:28:18.998Z,941.81
2019-04-07T02:29:19.238Z,941.71
2019-04-07T02:30:19.768Z,941.74
2019-04-07T02:31:19.178Z,941.71
2019-04-07T02:32:18.940Z,941.69
2019-04-07T02:33:19.187Z,941.73
2019-04-07T02:34:19.660Z,941.69
2019-04-07T02:35:18.942Z,941.75
2019-04-07T02:36:26.168Z,941.70
2019-04-07T02:37:20.594Z,941.70
2019-04-07T02:38:19.244Z,941.72
2019-04-07T02:39:19.518Z,941.72
2019-04-07T02:40:19.150Z,941.77
2019-04-07T02:41:19.800Z,941.69
2019-04-07T02:42:19.026Z,941.70
2019-04-07T02:43:19.453Z,941.75
2019-04-07T02:44:18.959Z,941.74
2019-04-07T02:45:19.760Z,941.70
2019-04-07T02:46:18.831Z,941.79
2019-04-07T02:47:18.775Z,941.72
2019-04-07T02:48:18.773Z,941.66
2019-04-07T02:49:18.795Z,941.70
2019-04-07T02:50:18.756Z,941.61
2019-04-07T02:51:18.739Z,941.66
2019-04-07T02:52:18.727Z,941.73
2019-04-07T02:53:19.470Z,941.72
2019-04-07T02:54:19.405Z,941.70
2019-04-07T02:55:19.493Z,941.68
2019-04-07T02:56:18.718Z,941.74
2019-04-07T02:57:18.981Z,941.74
2019-04-07T02:58:18.816Z,941.70
2019-04-07T02:59:19.725Z,941.77
2019-04-07T03:00:18.670Z,941.83
2019-04-07T03:01:18.650Z,941.84
2019-04-07T03:02:18.620Z,941.88
2019-04-07T03:03:18.835Z,941.74
2019-04-07T03:04:19.031Z,941.81
2019-04-07T03:05:18.588Z,941.83
2019-04-07T03:06:33.987Z,941.81
2019-04-07T03:07:20.061Z,941.86
2019-04-07T03:08:18.644Z,941.93
2019-04-07T03:09:18.757Z,941.94
2019-04-07T03:10:18.678Z,941.87
2019-04-07T03:11:18.558Z,941.93
2019-04-07T03:12:19.096Z,941.85
2019-04-07T03:13:18.496Z,941.92
2019-04-07T03:14:18.496Z,941.88
2019-04-07T03:15:19.307Z,941.90
2019-04-07T03:16:19.437Z,941.86
2019-04-07T03:17:18.449Z,941.89
2019-04-07T03:18:18.476Z,941.92
2019-04-07T03:19:19.307Z,941.87
2019-04-07T03:20:18.729Z,941.88
2019-04-07T03:21:19.628Z,941.86
2019-04-07T03:22:18.413Z,941.84
2019-04-07T03:23:18.659Z,941.86
2019-04-07T03:24:19.300Z,941.83
2019-04-07T03:25:18.510Z,941.90
2019-04-07T03:26:18.509Z,941.86
2019-04-07T03:27:18.335Z,941.83
2019-04-07T03:28:18.355Z,941.92
2019-04-07T03:29:18.330Z,941.88
2019-04-07T03:30:20.060Z,941.85
2019-04-07T03:31:20.009Z,941.96
2019-04-07T03:32:19.849Z,941.89
2019-04-07T03:33:21.744Z,941.88
2019-04-07T03:34:18.945Z,941.89
2019-04-07T03:35:20.921Z,941.90
2019-04-07T03:36:21.305Z,941.91
2019-04-07T03:37:31.300Z,941.88
2019-04-07T03:38:19.288Z,941.89
2019-04-07T03:39:18.894Z,941.89
2019-04-07T03:40:18.420Z,941.92
2019-04-07T03:41:18.312Z,941.83
2019-04-07T03:42:18.207Z,941.84
2019-04-07T03:43:18.158Z,941.85
2019-04-07T03:44:18.508Z,941.89
2019-04-07T03:45:18.762Z,941.90
2019-04-07T03:46:18.403Z,941.88
2019-04-07T03:47:18.411Z,941.79
2019-04-07T03:48:18.154Z,941.92
2019-04-07T03:49:18.768Z,941.94
2019-04-07T03:50:18.628Z,941.90
2019-04-07T03:51:18.970Z,941.94
2019-04-07T03:52:19.246Z,941.93
2019-04-07T03:53:18.108Z,941.97
2019-04-07T03:54:18.391Z,942.03
2019-04-07T03:55:18.033Z,942.05
2019-04-07T03:56:18.136Z,941.99
2019-04-07T03:57:18.008Z,941.96
2019-04-07T03:58:18.140Z,942.00
2019-04-07T03:59:18.313Z,942.01
2019-04-07T04:00:18.705Z,942.01
2019-04-07T04:01:18.031Z,941.98
2019-04-07T04:02:17.958Z,942.01
2019-04-07T04:03:17.947Z,942.07
2019-04-07T04:04:18.890Z,942.07
2019-04-07T04:05:18.886Z,942.14
2019-04-07T04:06:17.952Z,942.11
2019-04-07T04:07:29.379Z,941.97
2019-04-07T04:08:18.918Z,942.05
2019-04-07T04:09:17.907Z,942.07
2019-04-07T04:10:17.888Z,942.07
2019-04-07T04:11:18.198Z,942.12
2019-04-07T04:12:17.900Z,942.12
2019-04-07T04:13:17.847Z,942.04
2019-04-07T04:14:18.370Z,942.10
2019-04-07T04:15:18.401Z,942.10
2019-04-07T04:16:18.104Z,941.97
2019-04-07T04:17:18.321Z,942.12
2019-04-07T04:18:18.405Z,942.06
2019-04-07T04:19:18.795Z,942.17
2019-04-07T04:20:17.779Z,942.06
2019-04-07T04:21:17.854Z,942.10
2019-04-07T04:22:18.569Z,942.11
2019-04-07T04:23:17.882Z,942.08
2019-04-07T04:24:18.517Z,942.08
2019-04-07T04:25:17.746Z,942.13
2019-04-07T04:26:17.730Z,942.08
2019-04-07T04:27:17.686Z,942.11
2019-04-07T04:28:18.094Z,942.14
2019-04-07T04:29:17.661Z,942.14
2019-04-07T04:30:17.683Z,942.10
2019-04-07T04:31:17.928Z,942.14
2019-04-07T04:32:17.623Z,942.16
2019-04-07T04:33:18.040Z,942.14
2019-04-07T04:34:17.602Z,942.26
2019-04-07T04:35:17.659Z,942.19
2019-04-07T04:36:17.826Z,942.15
2019-04-07T04:37:33.266Z,942.15
2019-04-07T04:38:18.562Z,942.17
2019-04-07T04:39:19.712Z,942.19
2019-04-07T04:40:17.813Z,942.20
2019-04-07T04:41:17.541Z,942.22
2019-04-07T04:42:18.356Z,942.28
2019-04-07T04:43:17.839Z,942.26
2019-04-07T04:44:18.457Z,942.33
2019-04-07T04:45:17.905Z,942.33
2019-04-07T04:46:18.549Z,942.34
2019-04-07T04:47:17.473Z,942.37
2019-04-07T04:48:17.593Z,942.34
2019-04-07T04:49:17.465Z,942.29
2019-04-07T04:50:17.423Z,942.27
2019-04-07T04:51:18.328Z,942.27
2019-04-07T04:52:18.042Z,942.33
2019-04-07T04:53:18.447Z,942.30
2019-04-07T04:54:17.434Z,942.35
2019-04-07T04:55:17.372Z,942.31
2019-04-07T04:56:17.393Z,942.35
2019-04-07T04:57:17.791Z,942.33
2019-04-07T04:58:17.527Z,942.23
2019-04-07T04:59:18.156Z,942.40
2019-04-07T05:00:18.495Z,942.46
2019-04-07T05:01:17.555Z,942.42
2019-04-07T05:02:17.314Z,942.42
2019-04-07T05:03:18.179Z,942.37
2019-04-07T05:04:17.479Z,942.43
2019-04-07T05:05:18.104Z,942.47
2019-04-07T05:06:17.997Z,942.45
2019-04-07T05:07:17.246Z,942.45
2019-04-07T05:08:17.587Z,942.46
2019-04-07T05:09:17.997Z,942.44
2019-04-07T05:10:17.278Z,942.56
2019-04-07T05:11:17.504Z,942.52
2019-04-07T05:12:17.569Z,942.57
2019-04-07T05:13:17.203Z,942.49
2019-04-07T05:14:17.177Z,942.56
2019-04-07T05:15:17.552Z,942.54
2019-04-07T05:16:17.571Z,942.54
2019-04-07T05:17:17.370Z,942.59
2019-04-07T05:18:17.444Z,942.59
2019-04-07T05:19:17.127Z,942.61
2019-04-07T05:20:17.305Z,942.72
2019-04-07T05:21:17.088Z,942.59
2019-04-07T05:22:17.868Z,942.69
2019-04-07T05:23:18.004Z,942.65
2019-04-07T05:24:17.067Z,942.73
2019-04-07T05:25:17.381Z,942.69
2019-04-07T05:26:17.040Z,942.74
2019-04-07T05:27:17.429Z,942.76
2019-04-07T05:28:17.079Z,942.68
2019-04-07T05:29:17.062Z,942.71
2019-04-07T05:30:16.998Z,942.70
2019-04-07T05:31:17.727Z,942.63
2019-04-07T05:32:17.001Z,942.63
2019-04-07T05:33:16.967Z,942.63
2019-04-07T05:34:20.518Z,942.57
2019-04-07T05:35:18.715Z,942.56
2019-04-07T05:36:16.940Z,942.63
2019-04-07T05:37:17.626Z,942.61
2019-04-07T05:38:16.935Z,942.56
2019-04-07T05:39:17.473Z,942.55
2019-04-07T05:40:16.897Z,942.59
2019-04-07T05:41:17.148Z,942.56
2019-04-07T05:42:17.499Z,942.57
2019-04-07T05:43:17.382Z,942.47
2019-04-07T05:44:17.682Z,942.51
2019-04-07T05:45:17.286Z,942.55
2019-04-07T05:46:17.645Z,942.51
2019-04-07T05:47:16.836Z,942.48
2019-04-07T05:48:18.523Z,942.54
2019-04-07T05:49:17.729Z,942.57
2019-04-07T05:50:16.799Z,942.54
2019-04-07T05:51:16.759Z,942.57
2019-04-07T05:52:17.194Z,942.54
2019-04-07T05:53:17.029Z,942.52
2019-04-07T05:54:18.984Z,942.50
2019-04-07T05:55:20.631Z,942.59
2019-04-07T05:56:17.715Z,942.54
2019-04-07T05:57:16.734Z,942.59
2019-04-07T05:58:16.699Z,942.57
2019-04-07T05:59:16.679Z,942.51
2019-04-07T06:00:17.056Z,942.50
2019-04-07T06:01:21.731Z,942.54
2019-04-07T06:02:17.836Z,942.60
2019-04-07T06:03:16.718Z,942.46
2019-04-07T06:04:18.379Z,942.58
2019-04-07T06:05:17.708Z,942.62
2019-04-07T06:06:19.100Z,942.55
2019-04-07T06:07:16.598Z,942.54
2019-04-07T06:08:24.700Z,942.63
2019-04-07T06:09:18.920Z,942.71
2019-04-07T06:10:16.739Z,942.67
2019-04-07T06:11:16.961Z,942.74
2019-04-07T06:12:17.097Z,942.67
2019-04-07T06:13:17.498Z,942.73
2019-04-07T06:14:16.984Z,942.74
2019-04-07T06:15:20.961Z,942.74
2019-04-07T06:16:19.961Z,942.74
2019-04-07T06:17:16.497Z,942.70
2019-04-07T06:18:16.460Z,942.68
2019-04-07T06:19:17.039Z,942.65
2019-04-07T06:20:17.793Z,942.68
2019-04-07T06:21:17.258Z,942.66
2019-04-07T06:22:19.867Z,942.75
2019-04-07T06:23:16.999Z,942.75
2019-04-07T06:24:16.908Z,942.73
2019-04-07T06:25:16.621Z,942.69
2019-04-07T06:26:17.330Z,942.73
2019-04-07T06:27:17.842Z,942.74
2019-04-07T06:28:18.820Z,942.65
2019-04-07T06:29:17.017Z,942.72
2019-04-07T06:30:16.603Z,942.63
2019-04-07T06:31:16.348Z,942.64
2019-04-07T06:32:16.621Z,942.65
2019-04-07T06:33:16.313Z,942.69
2019-04-07T06:34:16.297Z,942.67
2019-04-07T06:35:16.953Z,942.67
2019-04-07T06:36:18.752Z,942.71
2019-04-07T06:37:16.257Z,942.75
2019-04-07T06:38:16.640Z,942.79
2019-04-07T06:39:18.188Z,942.75
2019-04-07T06:40:20.369Z,942.73
2019-04-07T06:41:17.422Z,942.77
2019-04-07T06:42:16.257Z,942.72
2019-04-07T06:43:16.920Z,942.65
2019-04-07T06:44:19.881Z,942.68
2019-04-07T06:45:20.618Z,942.73
2019-04-07T06:46:16.229Z,942.68
2019-04-07T06:47:17.744Z,942.74
2019-04-07T06:48:16.623Z,942.68
2019-04-07T06:49:16.117Z,942.75
2019-04-07T06:50:16.892Z,942.70
2019-04-07T06:51:16.151Z,942.74
2019-04-07T06:52:16.091Z,942.75
2019-04-07T06:53:18.682Z,942.79
2019-04-07T06:54:21.030Z,942.84
2019-04-07T06:55:17.079Z,942.85
2019-04-07T06:56:16.561Z,942.91
2019-04-07T06:57:16.043Z,942.96
2019-04-07T06:58:16.398Z,942.98
2019-04-07T06:59:16.573Z,942.93
2019-04-07T07:00:17.437Z,942.96
2019-04-07T07:01:16.585Z,942.92
2019-04-07T07:02:16.017Z,942.90
2019-04-07T07:03:16.571Z,942.92
2019-04-07T07:04:15.982Z,942.94
2019-04-07T07:05:16.372Z,943.02
2019-04-07T07:06:17.346Z,942.99
2019-04-07T07:07:16.738Z,943.01
2019-04-07T07:08:19.361Z,943.00
2019-04-07T07:09:16.919Z,943.09
2019-04-07T07:10:26.152Z,942.98
2019-04-07T07:11:27.229Z,943.01
2019-04-07T07:12:22.573Z,943.06
2019-04-07T07:13:28.478Z,943.11
2019-04-07T07:14:31.357Z,943.15
2019-04-07T07:15:16.837Z,943.18
2019-04-07T07:16:17.137Z,943.08
2019-04-07T07:17:18.293Z,943.16
2019-04-07T07:18:20.068Z,943.07
2019-04-07T07:19:16.806Z,943.10
2019-04-07T07:20:15.831Z,943.05
2019-04-07T07:21:16.575Z,943.07
2019-04-07T07:22:17.156Z,943.09
2019-04-07T07:23:15.847Z,943.08
2019-04-07T07:24:18.495Z,943.08
2019-04-07T07:25:17.013Z,943.14
2019-04-07T07:26:17.159Z,943.16
2019-04-07T07:27:16.400Z,943.02
2019-04-07T07:28:16.165Z,943.05
2019-04-07T07:29:18.064Z,943.16
2019-04-07T07:30:18.367Z,943.18
2019-04-07T07:31:16.479Z,943.14
2019-04-07T07:32:15.912Z,943.18
2019-04-07T07:33:15.731Z,943.27
2019-04-07T07:34:16.392Z,943.22
2019-04-07T07:35:16.465Z,943.17
2019-04-07T07:36:18.350Z,943.23
2019-04-07T07:37:16.668Z,943.26
2019-04-07T07:38:15.615Z,943.32
2019-04-07T07:39:15.595Z,943.23
2019-04-07T07:40:18.049Z,943.27
2019-04-07T07:41:19.202Z,943.27
2019-04-07T07:42:19.092Z,943.32
2019-04-07T07:43:16.581Z,943.24
2019-04-07T07:44:15.622Z,943.20
2019-04-07T07:45:15.664Z,943.20
2019-04-07T07:46:18.176Z,943.14
2019-04-07T07:47:17.627Z,943.20
2019-04-07T07:48:16.314Z,943.15
2019-04-07T07:49:15.759Z,943.18
2019-04-07T07:50:15.462Z,943.18
2019-04-07T07:51:16.362Z,943.28
2019-04-07T07:52:18.712Z,943.25
2019-04-07T07:53:16.893Z,943.27
2019-04-07T07:54:16.145Z,943.24
2019-04-07T07:55:15.519Z,943.28
2019-04-07T07:56:16.044Z,943.31
2019-04-07T07:57:16.036Z,943.29
2019-04-07T07:58:15.769Z,943.32
2019-04-07T07:59:15.403Z,943.27
2019-04-07T08:00:15.633Z,943.35
2019-04-07T08:01:15.932Z,943.38
2019-04-07T08:02:19.442Z,943.39
2019-04-07T08:03:15.583Z,943.40
2019-04-07T08:04:16.114Z,943.45
2019-04-07T08:05:16.011Z,943.34
2019-04-07T08:06:16.041Z,943.42
2019-04-07T08:07:16.372Z,943.38
2019-04-07T08:08:16.346Z,943.33
2019-04-07T08:09:18.683Z,943.34
2019-04-07T08:10:16.950Z,943.29
2019-04-07T08:11:16.693Z,943.41
2019-04-07T08:12:15.275Z,943.52
2019-04-07T08:13:15.611Z,943.61
2019-04-07T08:14:18.069Z,943.55
2019-04-07T08:15:15.267Z,943.58
2019-04-07T08:16:15.235Z,943.63
2019-04-07T08:17:15.178Z,943.46
2019-04-07T08:18:15.727Z,943.51
2019-04-07T08:19:15.297Z,943.65
2019-04-07T08:20:15.327Z,943.72
2019-04-07T08:21:18.455Z,943.66
2019-04-07T08:22:26.592Z,943.71
2019-04-07T08:23:16.126Z,943.75
2019-04-07T08:24:17.671Z,943.79
2019-04-07T08:25:15.348Z,943.74
2019-04-07T08:26:15.847Z,943.54
2019-04-07T08:27:15.103Z,943.55
2019-04-07T08:28:15.723Z,943.60
2019-04-07T08:29:15.551Z,943.62
2019-04-07T08:30:15.029Z,943.58
2019-04-07T08:31:17.730Z,943.70
2019-04-07T08:32:16.550Z,943.68
2019-04-07T08:33:15.859Z,943.69
2019-04-07T08:34:14.991Z,943.72
2019-04-07T08:35:15.380Z,943.77
2019-04-07T08:36:15.038Z,943.71
2019-04-07T08:37:15.464Z,943.74
2019-04-07T08:38:19.218Z,943.75
2019-04-07T08:39:22.855Z,943.76
2019-04-07T08:40:16.340Z,943.85
2019-04-07T08:41:15.877Z,943.85
2019-04-07T08:42:18.550Z,943.83
2019-04-07T08:43:14.932Z,943.81
2019-04-07T08:44:15.006Z,943.80
2019-04-07T08:45:15.538Z,943.72
2019-04-07T08:46:15.311Z,943.66
2019-04-07T08:47:20.765Z,943.65
2019-04-07T08:48:18.262Z,943.62
2019-04-07T08:49:14.824Z,943.66
2019-04-07T08:50:15.179Z,943.66
2019-04-07T08:51:14.862Z,943.69
2019-04-07T08:52:15.274Z,943.66
2019-04-07T08:53:14.840Z,943.66
2019-04-07T08:54:16.850Z,943.64
2019-04-07T08:55:15.052Z,943.63
2019-04-07T08:56:15.414Z,943.64
2019-04-07T08:57:15.266Z,943.60
2019-04-07T08:58:25.141Z,943.71
2019-04-07T08:59:16.992Z,943.61
2019-04-07T09:00:17.311Z,943.64
2019-04-07T09:01:17.355Z,943.67
2019-04-07T09:02:16.227Z,943.58
2019-04-07T09:03:15.970Z,943.61
2019-04-07T09:04:16.497Z,943.68
2019-04-07T09:05:14.649Z,943.71
2019-04-07T09:06:14.638Z,943.84
2019-04-07T09:07:15.386Z,943.80
2019-04-07T09:08:14.945Z,943.80
2019-04-07T09:09:14.636Z,943.78
2019-04-07T09:10:18.345Z,943.79
2019-04-07T09:11:14.728Z,943.83
2019-04-07T09:12:15.230Z,943.88
2019-04-07T09:13:14.685Z,943.81
2019-04-07T09:14:16.014Z,943.73
2019-04-07T09:15:14.547Z,943.78
2019-04-07T09:16:16.186Z,943.76
2019-04-07T09:17:14.929Z,943.73
2019-04-07T09:18:16.048Z,943.79
2019-04-07T09:19:14.969Z,943.67
2019-04-07T09:20:14.701Z,943.64
2019-04-07T09:21:15.641Z,943.65
2019-04-07T09:22:14.540Z,943.64
2019-04-07T09:23:14.691Z,943.67
2019-04-07T09:24:15.051Z,943.70
2019-04-07T09:25:14.465Z,943.65
2019-04-07T09:26:15.066Z,943.78
2019-04-07T09:27:18.576Z,943.78
2019-04-07T09:28:15.401Z,943.72
2019-04-07T09:29:15.022Z,943.72
2019-04-07T09:30:14.369Z,943.73
2019-04-07T09:31:14.429Z,943.77
2019-04-07T09:32:14.393Z,943.76
2019-04-07T09:33:14.853Z,943.75
2019-04-07T09:34:18.282Z,943.63
2019-04-07T09:35:15.576Z,943.72
2019-04-07T09:36:14.340Z,943.70
2019-04-07T09:37:14.318Z,943.72
2019-04-07T09:38:14.417Z,943.69
2019-04-07T09:39:14.477Z,943.73
2019-04-07T09:40:17.192Z,943.65
2019-04-07T09:41:16.487Z,943.64
2019-04-07T09:42:15.952Z,943.69
2019-04-07T09:43:17.557Z,943.69
2019-04-07T09:44:14.419Z,943.76
2019-04-07T09:45:14.222Z,943.64
2019-04-07T09:46:14.739Z,943.73
2019-04-07T09:47:16.447Z,943.70
2019-04-07T09:48:17.710Z,943.75
2019-04-07T09:49:15.161Z,943.73
2019-04-07T09:50:14.200Z,943.71
2019-04-07T09:51:14.169Z,943.67
2019-04-07T09:52:16.075Z,943.71
2019-04-07T09:53:17.942Z,943.77
2019-04-07T09:54:14.898Z,943.72
2019-04-07T09:55:14.365Z,943.72
2019-04-07T09:56:14.173Z,943.73
2019-04-07T09:57:14.217Z,943.73
2019-04-07T09:58:14.830Z,943.75
2019-04-07T09:59:16.976Z,943.74
2019-04-07T10:00:15.942Z,943.71
2019-04-07T10:01:18.920Z,943.72
2019-04-07T10:02:15.626Z,943.73
2019-04-07T10:03:16.050Z,943.83
2019-04-07T10:04:14.012Z,943.76
2019-04-07T10:05:14.012Z,943.86
2019-04-07T10:06:14.014Z,943.85
2019-04-07T10:07:15.345Z,943.86
2019-04-07T10:08:14.812Z,943.82
2019-04-07T10:09:14.538Z,943.89
2019-04-07T10:10:14.876Z,943.85
2019-04-07T10:11:14.685Z,943.78
2019-04-07T10:12:14.033Z,943.75
2019-04-07T10:13:14.611Z,943.84
2019-04-07T10:14:13.963Z,943.83
2019-04-07T10:15:14.051Z,943.79
2019-04-07T10:16:14.874Z,943.80
2019-04-07T10:17:14.365Z,943.89
2019-04-07T10:18:14.216Z,943.89
2019-04-07T10:19:14.128Z,943.85
2019-04-07T10:20:14.362Z,943.94
2019-04-07T10:21:14.306Z,943.91
2019-04-07T10:22:13.986Z,943.84
2019-04-07T10:23:14.134Z,943.86
2019-04-07T10:24:14.169Z,943.84
2019-04-07T10:25:14.398Z,943.78
2019-04-07T10:26:14.527Z,943.83
2019-04-07T10:27:14.586Z,943.83
2019-04-07T10:28:13.873Z,943.78
2019-04-07T10:29:13.769Z,943.81
2019-04-07T10:30:14.573Z,943.77
2019-04-07T10:31:13.873Z,943.80
2019-04-07T10:32:13.700Z,943.77
2019-04-07T10:33:14.403Z,943.82
2019-04-07T10:34:13.739Z,943.83
2019-04-07T10:35:14.428Z,943.87
2019-04-07T10:36:13.753Z,943.77
2019-04-07T10:37:14.489Z,943.86
2019-04-07T10:38:14.177Z,943.83
2019-04-07T10:39:14.280Z,943.81
2019-04-07T10:40:19.769Z,943.82
2019-04-07T10:41:15.141Z,943.90
2019-04-07T10:42:13.783Z,943.86
2019-04-07T10:43:13.810Z,943.84
2019-04-07T10:44:13.961Z,943.82
2019-04-07T10:45:13.621Z,943.82
2019-04-07T10:46:14.676Z,943.85
2019-04-07T10:47:13.562Z,943.89
2019-04-07T10:48:13.546Z,943.85
2019-04-07T10:49:13.524Z,943.85
2019-04-07T10:50:14.262Z,943.87
2019-04-07T10:51:13.579Z,943.80
2019-04-07T10:52:13.486Z,943.79
2019-04-07T10:53:14.231Z,943.87
2019-04-07T10:54:13.654Z,943.90
2019-04-07T10:55:14.126Z,943.83
2019-04-07T10:56:14.213Z,943.73
2019-04-07T10:57:13.420Z,943.80
2019-04-07T10:58:14.066Z,943.82
2019-04-07T10:59:13.652Z,943.79
2019-04-07T11:00:13.524Z,943.84
2019-04-07T11:01:13.475Z,943.87
2019-04-07T11:02:13.539Z,943.81
2019-04-07T11:03:13.352Z,943.83
2019-04-07T11:04:13.837Z,943.84
2019-04-07T11:05:14.117Z,943.82
2019-04-07T11:06:13.824Z,943.79
2019-04-07T11:07:14.041Z,943.76
2019-04-07T11:08:13.832Z,943.79
2019-04-07T11:09:13.313Z,943.78
2019-04-07T11:10:13.298Z,943.80
2019-04-07T11:11:14.534Z,943.78
2019-04-07T11:12:13.292Z,943.77
2019-04-07T11:13:14.631Z,943.74
2019-04-07T11:14:13.400Z,943.73
2019-04-07T11:15:13.782Z,943.78
2019-04-07T11:16:13.222Z,943.74
2019-04-07T11:17:13.934Z,943.78
2019-04-07T11:18:13.646Z,943.75
2019-04-07T11:19:13.182Z,943.78
2019-04-07T11:20:13.324Z,943.74
2019-04-07T11:21:13.156Z,943.73
2019-04-07T11:22:14.401Z,943.69
2019-04-07T11:23:13.192Z,943.74
2019-04-07T11:24:13.918Z,943.75
2019-04-07T11:25:13.118Z,943.80
2019-04-07T11:26:13.465Z,943.71
2019-04-07T11:27:13.168Z,943.77
2019-04-07T11:28:13.374Z,943.80
2019-04-07T11:29:13.307Z,943.71
2019-04-07T11:30:13.313Z,943.77
2019-04-07T11:31:13.052Z,943.76
2019-04-07T11:32:13.904Z,943.71
2019-04-07T11:33:13.128Z,943.72
2019-04-07T11:34:13.026Z,943.76
2019-04-07T11:35:13.705Z,943.76
2019-04-07T11:36:13.805Z,943.74
2019-04-07T11:37:14.217Z,943.79
2019-04-07T11:38:13.611Z,943.81
2019-04-07T11:39:13.469Z,943.78
2019-04-07T11:40:12.976Z,943.80
2019-04-07T11:41:12.944Z,943.78
2019-04-07T11:42:13.123Z,943.82
2019-04-07T11:43:13.090Z,943.72
2019-04-07T11:44:12.985Z,943.70
2019-04-07T11:45:13.802Z,943.72
2019-04-07T11:46:12.888Z,943.77
2019-04-07T11:47:12.885Z,943.80
2019-04-07T11:48:12.876Z,943.74
2019-04-07T11:49:13.504Z,943.75
2019-04-07T11:50:13.489Z,943.78
2019-04-07T11:51:13.029Z,943.79
2019-04-07T11:52:13.584Z,943.75
2019-04-07T11:53:13.442Z,943.79
2019-04-07T11:54:13.004Z,943.81
2019-04-07T11:55:12.793Z,943.77
2019-04-07T11:56:13.263Z,943.81
2019-04-07T11:57:13.591Z,943.73
2019-04-07T11:58:16.552Z,943.75
2019-04-07T11:59:14.699Z,943.75
2019-04-07T12:00:12.849Z,943.79
2019-04-07T12:01:14.466Z,943.72
2019-04-07T12:02:12.748Z,943.78
2019-04-07T12:03:12.716Z,943.81
2019-04-07T12:04:15.196Z,943.78
2019-04-07T12:05:12.708Z,943.77
2019-04-07T12:06:14.291Z,943.74
2019-04-07T12:07:12.816Z,943.68
2019-04-07T12:08:12.660Z,943.79
2019-04-07T12:09:13.099Z,943.73
2019-04-07T12:10:12.641Z,943.71
2019-04-07T12:11:14.511Z,943.62
2019-04-07T12:12:12.697Z,943.70
2019-04-07T12:13:13.282Z,943.75
2019-04-07T12:14:16.337Z,943.71
2019-04-07T12:15:13.080Z,943.76
2019-04-07T12:16:13.329Z,943.72
2019-04-07T12:17:13.849Z,943.73
2019-04-07T12:18:16.816Z,943.71
2019-04-07T12:19:13.857Z,943.63
2019-04-07T12:20:12.546Z,943.69
2019-04-07T12:21:19.357Z,943.66
2019-04-07T12:22:14.316Z,943.63
2019-04-07T12:23:16.266Z,943.71
2019-04-07T12:24:13.750Z,943.71
2019-04-07T12:25:12.557Z,943.67
2019-04-07T12:26:12.861Z,943.64
2019-04-07T12:27:13.644Z,943.67
2019-04-07T12:28:15.891Z,943.68